Time;durP1;ratioP1;P1;durP2;ratioP2;P2;SDS_P1;SDS_P2;PMS_P1;PMS_P2;Temp;Humidity;BMP_temperature;BMP_pressure;BME280_temperature;BME280_humidity;BME280_pressure;Samples;Min_cycle;Max_cycle;Signal;HPM_P1;HPM_P2
2022/07/31 00:00:24;;;;;;;15.43;14.17;;;19.20;99.90;;;;;;4991424;28;20556;-81
2022/07/31 00:02:54;;;;;;;16.43;14.93;;;19.20;99.90;;;;;;5008261;28;20897;-81
2022/07/31 00:05:22;;;;;;;16.60;15.10;;;19.20;99.90;;;;;;4991560;28;20528;-81
2022/07/31 00:07:51;;;;;;;16.20;14.80;;;19.20;99.90;;;;;;4990917;28;20476;-81
2022/07/31 00:10:19;;;;;;;16.23;14.60;;;19.20;99.90;;;;;;4991421;28;20539;-81
2022/07/31 00:12:47;;;;;;;14.23;13.03;;;19.20;99.90;;;;;;4989612;28;20487;-81
2022/07/31 00:15:16;;;;;;;16.57;15.27;;;19.20;99.90;;;;;;4989913;28;20445;-81
2022/07/31 00:17:44;;;;;;;16.30;15.07;;;19.20;99.90;;;;;;5007017;28;20540;-81
2022/07/31 00:20:17;;;;;;;16.30;14.87;;;19.10;99.90;;;;;;5007404;28;20448;-81
2022/07/31 00:22:47;;;;;;;17.87;16.37;;;19.20;99.90;;;;;;5009905;28;20831;-81
2022/07/31 00:25:16;;;;;;;17.97;16.47;;;19.20;99.90;;;;;;4991370;28;20455;-81
2022/07/31 00:27:45;;;;;;;18.17;16.53;;;19.10;99.90;;;;;;4989058;28;21033;-81
2022/07/31 00:30:15;;;;;;;16.97;15.27;;;19.10;99.90;;;;;;4988698;28;20443;-81
2022/07/31 00:32:44;;;;;;;16.33;14.87;;;19.10;99.90;;;;;;5005409;28;20451;-81
2022/07/31 00:35:13;;;;;;;17.70;16.23;;;19.10;99.90;;;;;;5005458;28;20443;-81
2022/07/31 00:37:43;;;;;;;17.23;15.60;;;19.10;99.90;;;;;;4995477;28;20464;-81
2022/07/31 00:40:14;;;;;;;17.57;16.17;;;19.10;99.90;;;;;;5004781;28;20433;-82
2022/07/31 00:42:42;;;;;;;18.90;16.60;;;19.00;99.90;;;;;;5005383;28;20452;-82
2022/07/31 00:45:11;;;;;;;16.40;14.80;;;19.00;99.90;;;;;;5005258;28;20508;-82
2022/07/31 00:47:41;;;;;;;18.10;16.57;;;19.00;99.90;;;;;;5005365;28;20429;-82
2022/07/31 00:50:10;;;;;;;17.70;16.40;;;19.00;99.90;;;;;;5005046;28;20479;-82
2022/07/31 00:52:40;;;;;;;18.47;16.67;;;19.00;99.90;;;;;;5021831;28;20441;-82
2022/07/31 00:55:09;;;;;;;17.90;16.40;;;19.00;99.90;;;;;;5021713;28;20428;-81
2022/07/31 00:57:38;;;;;;;19.03;17.33;;;19.00;99.90;;;;;;4996865;28;20433;-81
2022/07/31 01:00:08;;;;;;;19.30;17.40;;;19.00;99.90;;;;;;4986805;28;20540;-81
2022/07/31 01:02:37;;;;;;;18.73;16.90;;;19.00;99.90;;;;;;4984470;28;20484;-81
2022/07/31 01:05:13;;;;;;;20.80;19.13;;;19.00;99.90;;;;;;4985102;28;20444;-81
2022/07/31 01:07:43;;;;;;;19.80;18.20;;;19.00;99.90;;;;;;4984273;28;20452;-81
2022/07/31 01:10:16;;;;;;;19.97;18.30;;;18.90;99.90;;;;;;4983988;28;20909;-80
2022/07/31 01:12:51;;;;;;;18.10;16.70;;;18.90;99.90;;;;;;4983741;28;20781;-81
2022/07/31 01:15:22;;;;;;;20.90;19.10;;;18.90;99.90;;;;;;5000215;28;20436;-81
2022/07/31 01:17:51;;;;;;;19.50;18.00;;;18.90;99.90;;;;;;4981425;28;20515;-81
2022/07/31 01:20:20;;;;;;;19.17;17.40;;;18.90;99.90;;;;;;4982410;28;20532;-81
2022/07/31 01:23:13;;;;;;;19.93;18.17;;;18.90;99.90;;;;;;4983352;28;20506;-81
2022/07/31 01:26:03;;;;;;;20.30;18.60;;;18.90;99.90;;;;;;4985057;28;20460;-81
2022/07/31 01:29:13;;;;;;;19.73;18.00;;;18.90;99.90;;;;;;4983278;28;20465;-81
2022/07/31 01:31:46;;;;;;;18.30;16.70;;;18.80;99.90;;;;;;4932177;28;20811;-81
2022/07/31 01:34:22;;;;;;;19.33;17.70;;;18.80;99.90;;;;;;4984480;28;20862;-83
2022/07/31 01:36:57;;;;;;;17.73;16.23;;;18.80;99.90;;;;;;4998901;28;20476;-81
2022/07/31 01:39:28;;;;;;;17.37;15.77;;;18.80;99.90;;;;;;4993184;28;20459;-81
2022/07/31 01:42:05;;;;;;;15.87;14.67;;;18.80;99.90;;;;;;4993312;28;20479;-81
2022/07/31 01:44:43;;;;;;;15.87;14.37;;;18.80;99.90;;;;;;4992543;28;20465;-81
2022/07/31 01:47:16;;;;;;;16.67;15.17;;;18.80;99.90;;;;;;4989380;28;20464;-81
2022/07/31 01:49:47;;;;;;;15.57;14.30;;;18.80;99.90;;;;;;4992194;28;20571;-82
2022/07/31 01:52:19;;;;;;;15.20;13.80;;;18.80;99.90;;;;;;4992112;28;20477;-81
2022/07/31 01:54:49;;;;;;;16.97;15.40;;;18.70;99.90;;;;;;4990994;28;20496;-82
2022/07/31 01:57:18;;;;;;;16.30;15.00;;;18.70;99.90;;;;;;4992308;28;20497;-82
2022/07/31 01:59:55;;;;;;;15.37;14.13;;;18.70;99.90;;;;;;4992067;28;20433;-81
2022/07/31 02:02:44;;;;;;;16.40;14.90;;;18.70;99.90;;;;;;4991368;28;20467;-81
2022/07/31 02:05:13;;;;;;;15.83;14.40;;;18.70;99.90;;;;;;4990999;28;20445;-81
2022/07/31 02:07:41;;;;;;;17.03;15.60;;;18.70;99.90;;;;;;5008695;28;20433;-81
2022/07/31 02:10:12;;;;;;;15.67;14.23;;;18.70;99.90;;;;;;4990239;28;20477;-81
2022/07/31 02:12:41;;;;;;;16.67;15.07;;;18.70;99.90;;;;;;4991738;28;20447;-81
2022/07/31 02:15:14;;;;;;;15.07;13.80;;;18.70;99.90;;;;;;4990354;28;20460;-81
2022/07/31 02:17:46;;;;;;;13.70;12.33;;;18.60;99.90;;;;;;4990832;28;20444;-81
2022/07/31 02:20:23;;;;;;;15.37;14.07;;;18.60;99.90;;;;;;5007652;28;20425;-81
2022/07/31 02:22:58;;;;;;;16.23;14.77;;;18.60;99.90;;;;;;4989429;28;20477;-81
2022/07/31 02:25:27;;;;;;;14.43;13.17;;;18.60;99.90;;;;;;4989895;28;20457;-81
2022/07/31 02:27:57;;;;;;;14.50;13.20;;;18.50;99.90;;;;;;4988623;28;20453;-81
2022/07/31 02:30:31;;;;;;;14.17;12.97;;;18.50;99.90;;;;;;4989942;28;20500;-81
2022/07/31 02:33:10;;;;;;;13.57;12.27;;;18.50;99.90;;;;;;4988937;28;20464;-81
2022/07/31 02:35:41;;;;;;;14.47;13.10;;;18.50;99.90;;;;;;4989395;28;20460;-81
2022/07/31 02:38:16;;;;;;;13.20;12.00;;;18.50;99.90;;;;;;4988779;28;20432;-81
2022/07/31 02:40:58;;;;;;;13.40;12.20;;;18.50;99.90;;;;;;5006122;28;20421;-81
2022/07/31 02:43:30;;;;;;;12.63;11.63;;;18.50;99.90;;;;;;4987721;28;20504;-81
2022/07/31 02:46:07;;;;;;;14.07;12.77;;;18.50;99.90;;;;;;4988921;28;20452;-81
2022/07/31 02:48:37;;;;;;;14.63;13.37;;;18.40;99.90;;;;;;4994263;28;20513;-81
2022/07/31 02:51:08;;;;;;;13.37;12.20;;;18.40;99.90;;;;;;4991071;28;20464;-81
2022/07/31 02:53:37;;;;;;;12.80;11.40;;;18.40;99.90;;;;;;4990457;28;20468;-81
2022/07/31 02:56:10;;;;;;;12.10;11.10;;;18.40;99.90;;;;;;4989505;28;20456;-81
2022/07/31 02:58:41;;;;;;;12.03;10.83;;;18.40;99.90;;;;;;4988744;28;20476;-81
2022/07/31 03:01:20;;;;;;;11.93;11.03;;;18.40;99.90;;;;;;4988502;28;20448;-81
2022/07/31 03:03:49;;;;;;;12.00;10.63;;;18.40;99.90;;;;;;4988657;28;20499;-81
2022/07/31 03:06:17;;;;;;;11.20;10.20;;;18.30;99.90;;;;;;4987768;28;20449;-81
2022/07/31 03:08:45;;;;;;;13.23;11.80;;;18.40;99.90;;;;;;4987644;28;20448;-81
2022/07/31 03:11:18;;;;;;;10.57;9.63;;;18.30;99.90;;;;;;4987772;28;20551;-81
2022/07/31 03:13:47;;;;;;;11.00;10.00;;;18.30;99.90;;;;;;4987047;28;21040;-81
2022/07/31 03:16:16;;;;;;;10.47;9.57;;;18.30;99.90;;;;;;4986221;28;20451;-81
2022/07/31 03:18:47;;;;;;;9.93;9.03;;;18.30;99.90;;;;;;4986439;28;20458;-81
2022/07/31 03:21:17;;;;;;;14.07;11.07;;;18.30;99.90;;;;;;5004326;28;20891;-81
2022/07/31 03:23:47;;;;;;;9.87;9.07;;;18.30;99.90;;;;;;4986184;28;20468;-81
2022/07/31 03:26:20;;;;;;;9.70;8.73;;;18.30;99.90;;;;;;4984800;28;20444;-81
2022/07/31 03:28:48;;;;;;;9.60;8.73;;;18.30;99.90;;;;;;4986478;28;20865;-81
2022/07/31 03:31:16;;;;;;;11.37;10.20;;;18.30;99.90;;;;;;4987443;28;21017;-81
2022/07/31 03:33:46;;;;;;;17.00;15.50;;;18.30;99.90;;;;;;4987069;28;20469;-81
2022/07/31 03:36:16;;;;;;;11.03;10.00;;;18.30;99.90;;;;;;4988366;28;20938;-82
2022/07/31 03:38:44;;;;;;;12.87;11.20;;;18.30;99.90;;;;;;5004971;28;20962;-81
2022/07/31 03:41:37;;;;;;;13.40;11.97;;;18.30;99.90;;;;;;4984862;28;20516;-81
2022/07/31 03:44:05;;;;;;;11.30;10.30;;;18.20;99.90;;;;;;4985446;28;20468;-81
2022/07/31 03:46:34;;;;;;;11.03;10.03;;;18.20;99.90;;;;;;4985033;28;20453;-81
2022/07/31 03:49:05;;;;;;;9.97;9.17;;;18.20;99.90;;;;;;4986000;28;20491;-81
2022/07/31 03:51:34;;;;;;;11.07;9.50;;;18.20;99.90;;;;;;4984724;28;20564;-81
2022/07/31 03:54:02;;;;;;;9.70;8.80;;;18.20;99.90;;;;;;4986131;28;20484;-81
2022/07/31 03:56:52;;;;;;;9.00;8.30;;;18.20;99.90;;;;;;5001875;28;20551;-81
2022/07/31 03:59:22;;;;;;;8.20;7.47;;;18.20;99.90;;;;;;4983406;28;20443;-80
2022/07/31 04:01:51;;;;;;;7.90;7.30;;;18.20;99.90;;;;;;4984421;28;20495;-81
2022/07/31 04:04:45;;;;;;;7.53;6.80;;;18.10;99.90;;;;;;4986128;28;20472;-81
2022/07/31 04:07:14;;;;;;;7.80;7.20;;;18.10;99.90;;;;;;4986523;28;20448;-81
2022/07/31 04:09:42;;;;;;;7.53;6.57;;;18.20;99.90;;;;;;4985263;28;20449;-81
2022/07/31 04:12:14;;;;;;;7.30;6.50;;;18.10;99.90;;;;;;4990028;28;20420;-81
2022/07/31 04:14:43;;;;;;;7.03;6.50;;;18.10;99.90;;;;;;4989788;28;20528;-81
2022/07/31 04:17:11;;;;;;;7.47;6.87;;;18.10;99.90;;;;;;4989207;28;20450;-81
2022/07/31 04:19:39;;;;;;;6.57;6.03;;;18.10;99.90;;;;;;4989706;28;20464;-81
2022/07/31 04:22:09;;;;;;;6.40;5.80;;;18.10;99.90;;;;;;4988209;28;20452;-81
2022/07/31 04:24:38;;;;;;;9.37;7.30;;;18.10;99.90;;;;;;4988519;28;20468;-81
2022/07/31 04:27:27;;;;;;;6.87;6.07;;;18.10;99.90;;;;;;4988395;28;20452;-81
2022/07/31 04:29:56;;;;;;;6.97;6.27;;;18.10;99.90;;;;;;4989784;28;20483;-81
2022/07/31 04:32:24;;;;;;;7.30;6.77;;;18.10;99.90;;;;;;4986927;28;20888;-81
2022/07/31 04:34:58;;;;;;;7.30;6.60;;;18.10;99.90;;;;;;4988071;28;20983;-81
2022/07/31 04:37:27;;;;;;;6.60;6.00;;;18.10;99.90;;;;;;4987418;28;20456;-81
2022/07/31 04:39:58;;;;;;;7.70;6.77;;;18.10;99.90;;;;;;4986254;28;20449;-81
2022/07/31 04:42:26;;;;;;;7.50;6.83;;;18.10;99.90;;;;;;4986857;28;20473;-81
2022/07/31 04:45:00;;;;;;;6.97;6.37;;;18.10;99.90;;;;;;4986402;28;20433;-80
2022/07/31 04:47:28;;;;;;;7.17;6.53;;;18.10;99.90;;;;;;4985458;28;20449;-81
2022/07/31 04:49:57;;;;;;;7.03;6.43;;;18.10;99.90;;;;;;4988983;28;20543;-81
2022/07/31 04:52:28;;;;;;;7.53;6.80;;;18.10;99.90;;;;;;4985703;28;20449;-81
2022/07/31 04:55:03;;;;;;;7.90;6.27;;;18.10;99.90;;;;;;4989865;28;20445;-81
2022/07/31 04:57:32;;;;;;;7.90;7.07;;;18.10;99.90;;;;;;4989570;28;20449;-81
2022/07/31 05:00:01;;;;;;;7.13;6.10;;;18.10;99.90;;;;;;4989473;28;20437;-81
2022/07/31 05:02:32;;;;;;;8.27;7.47;;;18.10;99.90;;;;;;4988898;28;20950;-81
2022/07/31 05:05:01;;;;;;;6.77;6.10;;;18.10;99.90;;;;;;4987212;28;20449;-80
2022/07/31 05:07:42;;;;;;;6.80;6.20;;;18.00;99.90;;;;;;4988459;28;20445;-80
2022/07/31 05:13:10;;;;;;;6.67;6.03;;;18.00;99.90;;;;;;4988886;28;20460;-80
2022/07/31 05:15:38;;;;;;;7.90;7.20;;;18.00;99.90;;;;;;5007147;28;20947;-81
2022/07/31 05:18:08;;;;;;;7.80;5.97;;;18.00;99.90;;;;;;4988438;28;20495;-80
2022/07/31 05:20:45;;;;;;;6.33;5.70;;;18.00;99.90;;;;;;5006798;28;20452;-80
2022/07/31 05:23:45;;;;;;;9.03;6.80;;;18.00;99.90;;;;;;4951999;28;20464;-81
2022/07/31 05:26:33;;;;;;;6.83;6.13;;;18.00;99.90;;;;;;5007218;28;20449;-81
2022/07/31 05:29:02;;;;;;;7.70;6.23;;;18.10;99.90;;;;;;4990441;28;20503;-81
2022/07/31 05:31:31;;;;;;;6.50;5.93;;;18.10;99.90;;;;;;4996088;28;20483;-81
2022/07/31 05:33:59;;;;;;;6.70;6.20;;;18.10;99.90;;;;;;4992093;28;20476;-81
2022/07/31 05:36:27;;;;;;;6.30;5.70;;;18.20;99.90;;;;;;4991851;28;20463;-82
2022/07/31 05:38:57;;;;;;;5.67;5.17;;;18.30;99.90;;;;;;4992068;28;20464;-81
2022/07/31 05:41:29;;;;;;;6.50;5.90;;;18.30;99.90;;;;;;5009752;28;20495;-81
2022/07/31 05:44:15;;;;;;;8.00;5.90;;;18.40;99.90;;;;;;5009958;28;20532;-81
2022/07/31 05:46:47;;;;;;;6.53;5.20;;;18.50;99.90;;;;;;4991673;28;20449;-81
2022/07/31 05:49:15;;;;;;;5.87;5.27;;;18.50;99.90;;;;;;4989884;28;20445;-81
2022/07/31 05:51:52;;;;;;;5.03;4.63;;;18.60;99.90;;;;;;4991042;28;20465;-79
2022/07/31 05:54:22;;;;;;;6.53;5.50;;;18.70;99.90;;;;;;4995278;28;20473;-81
2022/07/31 05:57:09;;;;;;;5.67;5.17;;;18.70;99.90;;;;;;5017746;28;20437;-80
2022/07/31 05:59:41;;;;;;;5.00;4.60;;;18.80;99.90;;;;;;5001946;28;20429;-80
2022/07/31 06:02:10;;;;;;;6.80;5.07;;;18.80;99.90;;;;;;5000473;28;20448;-81
2022/07/31 06:05:05;;;;;;;5.07;4.67;;;18.90;99.90;;;;;;4999171;28;20500;-81
2022/07/31 06:07:33;;;;;;;5.27;4.60;;;19.00;99.90;;;;;;4999753;28;20472;-81
2022/07/31 06:10:05;;;;;;;4.83;4.40;;;19.00;99.90;;;;;;4998951;28;20444;-81
2022/07/31 06:12:33;;;;;;;5.80;4.40;;;19.10;99.90;;;;;;4996251;28;20539;-81
2022/07/31 06:15:06;;;;;;;5.73;4.40;;;19.20;99.90;;;;;;4993454;28;20437;-81
2022/07/31 06:17:38;;;;;;;4.53;4.23;;;19.20;99.90;;;;;;4990110;28;20437;-81
2022/07/31 06:20:38;;;;;;;4.97;4.10;;;19.30;99.90;;;;;;5005550;28;20464;-81
2022/07/31 06:23:06;;;;;;;4.40;4.00;;;19.30;99.90;;;;;;4988680;28;20488;-81
2022/07/31 06:25:58;;;;;;;4.37;4.00;;;19.40;99.90;;;;;;4989543;28;20452;-81
2022/07/31 06:28:26;;;;;;;4.30;3.90;;;19.40;99.90;;;;;;4989547;28;20453;-81
2022/07/31 06:31:18;;;;;;;5.53;3.73;;;19.50;99.90;;;;;;4983512;28;20461;-81
2022/07/31 06:33:47;;;;;;;6.73;3.73;;;19.60;99.90;;;;;;4986887;28;20469;-81
2022/07/31 06:36:18;;;;;;;6.07;4.37;;;19.60;99.90;;;;;;4984927;28;20453;-82
2022/07/31 06:38:57;;;;;;;3.70;3.40;;;19.60;99.90;;;;;;4982489;28;20432;-81
2022/07/31 06:41:45;;;;;;;4.20;3.80;;;19.70;99.90;;;;;;5000581;28;20436;-81
2022/07/31 06:44:31;;;;;;;5.33;3.60;;;19.80;99.90;;;;;;5001688;28;20466;-81
2022/07/31 06:47:19;;;;;;;6.00;3.60;;;19.80;99.90;;;;;;5002564;28;20452;-81
2022/07/31 06:50:05;;;;;;;4.97;3.50;;;19.90;99.90;;;;;;4984028;28;20456;-81
2022/07/31 06:52:37;;;;;;;5.30;4.70;;;20.00;99.90;;;;;;4985822;28;20539;-82
2022/07/31 06:55:07;;;;;;;5.60;4.20;;;20.00;99.90;;;;;;4985471;28;20507;-81
2022/07/31 06:57:37;;;;;;;4.80;3.20;;;20.10;99.90;;;;;;4986389;28;20451;-81
2022/07/31 07:00:08;;;;;;;4.00;3.20;;;20.10;99.90;;;;;;4986564;28;20449;-81
2022/07/31 07:02:49;;;;;;;6.27;3.20;;;20.20;99.90;;;;;;4985301;28;20507;-80
2022/07/31 07:05:17;;;;;;;3.20;2.90;;;20.20;99.90;;;;;;4985789;28;20825;-80
2022/07/31 07:07:50;;;;;;;5.83;4.40;;;20.30;99.90;;;;;;4990527;28;20464;-81
2022/07/31 07:10:18;;;;;;;5.87;5.27;;;20.30;99.90;;;;;;4990092;28;20846;-80
2022/07/31 07:13:00;;;;;;;4.87;3.70;;;20.40;99.90;;;;;;5007631;28;20484;-81
2022/07/31 07:15:33;;;;;;;4.30;3.90;;;20.40;99.90;;;;;;4988772;28;20452;-81
2022/07/31 07:18:01;;;;;;;4.47;3.77;;;20.50;99.90;;;;;;4989105;28;20654;-81
2022/07/31 07:20:53;;;;;;;3.93;3.10;;;20.50;99.90;;;;;;5004911;28;20955;-81
2022/07/31 07:23:22;;;;;;;3.80;3.50;;;20.60;99.90;;;;;;4987217;28;20469;-81
2022/07/31 07:25:56;;;;;;;4.73;4.10;;;20.60;99.90;;;;;;4987570;28;20482;-81
2022/07/31 07:28:27;;;;;;;6.40;5.20;;;20.70;99.90;;;;;;4987175;28;20456;-81
2022/07/31 07:31:01;;;;;;;5.17;4.50;;;20.70;99.90;;;;;;4987714;28;20531;-81
2022/07/31 07:33:30;;;;;;;7.73;4.73;;;20.70;99.90;;;;;;4987088;28;20491;-80
2022/07/31 07:36:14;;;;;;;5.33;4.83;;;20.80;99.90;;;;;;4985491;28;20809;-80
2022/07/31 07:39:11;;;;;;;5.40;4.00;;;20.80;99.90;;;;;;4996164;28;20445;-81
2022/07/31 07:41:43;;;;;;;5.53;4.30;;;20.90;99.90;;;;;;4984926;28;20445;-81
2022/07/31 07:44:13;;;;;;;5.57;5.07;;;20.90;99.90;;;;;;4983995;28;20480;-81
2022/07/31 07:46:41;;;;;;;5.37;4.33;;;21.00;99.90;;;;;;4990076;28;20790;-81
2022/07/31 07:49:13;;;;;;;4.90;3.23;;;21.10;99.90;;;;;;4991675;28;20452;-80
2022/07/31 07:52:05;;;;;;;5.30;4.17;;;21.20;99.90;;;;;;5008478;28;20465;-82
2022/07/31 07:54:41;;;;;;;5.60;4.27;;;21.20;99.90;;;;;;5010505;28;20452;-82
2022/07/31 07:57:22;;;;;;;7.27;4.97;;;21.30;99.90;;;;;;5008420;28;20421;-81
2022/07/31 08:00:10;;;;;;;5.63;3.53;;;21.30;99.90;;;;;;5009130;28;20417;-81
2022/07/31 08:02:44;;;;;;;4.93;3.40;;;21.40;99.90;;;;;;5010039;28;20539;-81
2022/07/31 08:05:34;;;;;;;3.77;3.10;;;21.50;99.90;;;;;;4991700;28;20456;-81
2022/07/31 08:08:04;;;;;;;4.37;3.47;;;21.60;99.90;;;;;;5009880;28;20447;-81
2022/07/31 08:11:03;;;;;;;7.17;6.47;;;21.60;99.90;;;;;;5007125;28;20456;-81
2022/07/31 08:13:56;;;;;;;4.50;3.80;;;21.70;99.90;;;;;;4990701;28;20480;-81
2022/07/31 08:16:44;;;;;;;6.70;5.40;;;21.80;99.90;;;;;;5008175;28;20452;-81
2022/07/31 08:19:12;;;;;;;3.70;3.40;;;21.90;99.90;;;;;;4990723;28;20484;-81
2022/07/31 08:21:41;;;;;;;4.40;3.90;;;22.00;99.90;;;;;;4986577;28;20539;-81
2022/07/31 08:24:10;;;;;;;5.20;3.50;;;22.10;99.90;;;;;;4989599;28;20488;-81
2022/07/31 08:29:26;;;;;;;3.70;3.40;;;22.20;99.90;;;;;;4991070;28;20433;-81
2022/07/31 08:32:14;;;;;;;6.67;3.67;;;22.30;99.90;;;;;;4990884;28;20496;-82
2022/07/31 08:35:02;;;;;;;6.23;3.80;;;22.40;99.90;;;;;;5008624;28;20456;-82
2022/07/31 08:37:30;;;;;;;4.97;4.27;;;22.50;99.90;;;;;;5009271;28;20954;-82
2022/07/31 08:40:21;;;;;;;4.37;3.97;;;22.60;99.90;;;;;;4991522;28;20476;-82
2022/07/31 08:42:50;;;;;;;8.10;3.80;;;22.70;99.90;;;;;;4990307;28;20476;-82
2022/07/31 08:45:19;;;;;;;4.50;3.97;;;22.80;99.90;;;;;;4996413;28;20437;-82
2022/07/31 08:48:00;;;;;;;5.00;4.00;;;22.90;99.90;;;;;;4993472;28;20447;-82
2022/07/31 08:50:35;;;;;;;4.90;4.50;;;23.00;99.90;;;;;;4991744;28;20782;-82
2022/07/31 08:53:06;;;;;;;3.53;3.23;;;23.00;99.90;;;;;;4993220;28;20496;-81
2022/07/31 08:55:47;;;;;;;6.90;3.80;;;23.20;99.90;;;;;;4993301;28;20585;-82
2022/07/31 08:58:25;;;;;;;6.53;5.47;;;23.20;99.90;;;;;;4990816;28;20455;-82
2022/07/31 09:00:54;;;;;;;14.03;12.60;;;23.20;99.90;;;;;;4990384;28;20453;-82
2022/07/31 09:03:24;;;;;;;8.77;7.97;;;23.30;99.90;;;;;;4990854;28;20501;-82
2022/07/31 09:06:02;;;;;;;8.40;4.63;;;23.30;99.90;;;;;;4988732;28;20452;-82
2022/07/31 09:08:32;;;;;;;5.73;4.20;;;23.30;99.90;;;;;;4989619;28;20425;-82
2022/07/31 09:11:04;;;;;;;5.83;5.30;;;23.40;99.90;;;;;;4990025;28;20501;-82
2022/07/31 09:13:38;;;;;;;6.93;4.70;;;23.40;99.90;;;;;;4989478;28;20487;-82
2022/07/31 09:16:27;;;;;;;4.87;4.23;;;23.40;99.90;;;;;;5004870;28;20980;-82
2022/07/31 09:19:01;;;;;;;4.70;4.30;;;23.40;99.90;;;;;;4989360;28;20463;-81
2022/07/31 09:21:51;;;;;;;6.07;4.50;;;23.40;99.90;;;;;;5009501;28;20449;-81
2022/07/31 09:24:29;;;;;;;5.40;4.90;;;23.40;99.90;;;;;;4991857;28;20469;-82
2022/07/31 09:27:04;;;;;;;7.50;4.73;;;23.40;99.90;;;;;;4990092;28;20440;-82
2022/07/31 09:29:34;;;;;;;4.53;4.13;;;23.40;99.90;;;;;;4990550;28;20873;-82
2022/07/31 09:32:08;;;;;;;5.00;4.40;;;23.40;99.90;;;;;;4989351;28;20449;-82
2022/07/31 09:35:09;;;;;;;6.27;4.63;;;23.50;99.90;;;;;;5006240;28;20488;-82
2022/07/31 09:37:39;;;;;;;5.10;4.10;;;23.50;99.90;;;;;;5009472;28;20432;-83
2022/07/31 09:40:16;;;;;;;5.33;4.60;;;23.50;99.90;;;;;;5009588;28;20448;-82
2022/07/31 09:43:18;;;;;;;5.33;4.83;;;23.60;99.90;;;;;;5007039;28;20555;-81
2022/07/31 09:45:56;;;;;;;6.10;5.37;;;23.70;99.90;;;;;;4991560;28;20484;-82
2022/07/31 09:48:24;;;;;;;5.97;5.43;;;23.70;99.90;;;;;;4991919;28;20448;-82
2022/07/31 09:51:00;;;;;;;8.27;6.17;;;23.80;99.90;;;;;;4992033;28;20436;-83
2022/07/31 09:53:43;;;;;;;9.10;5.23;;;23.80;99.90;;;;;;4991049;28;20511;-82
2022/07/31 09:56:32;;;;;;;5.63;5.10;;;23.80;99.90;;;;;;5008310;28;20444;-82
2022/07/31 09:59:02;;;;;;;7.30;4.90;;;23.80;99.90;;;;;;4990996;28;20459;-82
2022/07/31 10:01:35;;;;;;;5.03;4.13;;;23.90;99.90;;;;;;4990771;28;20480;-82
2022/07/31 10:04:05;;;;;;;4.33;3.93;;;23.90;99.90;;;;;;4990721;28;20893;-82
2022/07/31 10:06:36;;;;;;;5.27;4.73;;;24.00;99.90;;;;;;4989341;28;20451;-82
2022/07/31 10:09:06;;;;;;;5.37;4.97;;;24.00;99.90;;;;;;4988358;28;20532;-82
2022/07/31 10:11:53;;;;;;;6.53;5.70;;;24.00;99.90;;;;;;4988073;28;20500;-82
2022/07/31 10:14:30;;;;;;;5.70;5.10;;;24.10;99.90;;;;;;4982323;28;21048;-79
2022/07/31 10:17:03;;;;;;;5.13;4.57;;;24.10;99.90;;;;;;4997304;28;20440;-80
2022/07/31 10:19:54;;;;;;;6.03;5.43;;;24.20;99.90;;;;;;4980945;28;20445;-81
2022/07/31 10:22:59;;;;;;;6.57;4.60;;;24.20;99.90;;;;;;4975490;28;20467;-81
2022/07/31 10:25:30;;;;;;;6.13;4.50;;;24.20;99.90;;;;;;4980211;28;20870;-81
2022/07/31 10:28:00;;;;;;;6.07;5.27;;;24.30;99.90;;;;;;4997805;28;20452;-80
2022/07/31 10:30:28;;;;;;;5.07;4.60;;;24.30;99.80;;;;;;4981785;28;20962;-80
2022/07/31 10:32:59;;;;;;;7.37;6.77;;;24.40;99.70;;;;;;4999583;28;20464;-86
2022/07/31 10:35:29;;;;;;;11.60;10.80;;;24.40;99.60;;;;;;5010125;28;20421;-81
2022/07/31 10:38:27;;;;;;;5.47;4.97;;;24.50;99.50;;;;;;4998772;28;20437;-80
2022/07/31 10:41:09;;;;;;;5.67;5.13;;;24.50;99.50;;;;;;5001028;28;20413;-81
2022/07/31 10:43:45;;;;;;;6.83;4.87;;;24.70;99.60;;;;;;4997857;28;20465;-80
2022/07/31 10:46:28;;;;;;;5.77;5.17;;;24.80;99.40;;;;;;4996699;28;20444;-80
2022/07/31 10:49:15;;;;;;;6.60;5.50;;;24.90;99.30;;;;;;5012034;28;20512;-81
2022/07/31 10:52:29;;;;;;;5.00;4.60;;;25.00;99.20;;;;;;5007666;28;20456;-80
2022/07/31 10:55:21;;;;;;;6.63;5.83;;;25.10;99.10;;;;;;5006673;28;20469;-81
2022/07/31 10:58:28;;;;;;;5.40;4.80;;;25.20;98.90;;;;;;4922527;29;20444;-81
2022/07/31 11:01:06;;;;;;;5.17;4.70;;;25.30;98.80;;;;;;4920019;29;20850;-80
2022/07/31 11:03:45;;;;;;;5.43;4.90;;;25.30;98.80;;;;;;4952530;28;20797;-82
2022/07/31 11:06:45;;;;;;;22.30;20.30;;;25.40;98.80;;;;;;4982577;28;20545;-82
2022/07/31 11:09:40;;;;;;;6.50;5.13;;;25.50;98.70;;;;;;4997345;28;20473;-82
2022/07/31 11:12:59;;;;;;;13.33;12.13;;;25.50;98.50;;;;;;4992792;28;20492;-82
2022/07/31 11:15:49;;;;;;;24.00;21.83;;;25.60;98.40;;;;;;5004198;28;20437;-82
2022/07/31 11:18:45;;;;;;;6.50;5.90;;;25.60;98.30;;;;;;4984645;28;20457;-81
2022/07/31 11:21:13;;;;;;;5.97;4.73;;;25.70;98.00;;;;;;4982883;28;20463;-82
2022/07/31 11:24:11;;;;;;;7.97;7.17;;;25.70;97.90;;;;;;4999907;28;20464;-82
2022/07/31 11:26:42;;;;;;;27.23;24.80;;;25.70;97.70;;;;;;4982773;28;20483;-82
2022/07/31 11:29:12;;;;;;;7.03;6.33;;;25.80;97.70;;;;;;4983363;28;20441;-82
2022/07/31 11:32:11;;;;;;;5.07;4.57;;;25.80;97.70;;;;;;4983679;28;20438;-82
2022/07/31 11:34:50;;;;;;;6.03;4.03;;;25.80;97.60;;;;;;5004934;28;20476;-82
2022/07/31 11:37:21;;;;;;;5.67;4.50;;;25.80;97.50;;;;;;4982390;28;20448;-82
2022/07/31 11:39:51;;;;;;;4.67;4.20;;;25.80;97.30;;;;;;4982029;28;20453;-83
2022/07/31 11:42:21;;;;;;;5.57;5.07;;;25.80;97.20;;;;;;4981343;28;20516;-83
2022/07/31 11:45:04;;;;;;;4.63;3.90;;;25.80;97.20;;;;;;4981959;28;20507;-80
2022/07/31 11:48:00;;;;;;;4.77;4.37;;;25.80;97.10;;;;;;4980448;28;20436;-80
2022/07/31 11:50:46;;;;;;;4.57;4.13;;;25.80;97.00;;;;;;4979677;28;20463;-80
2022/07/31 11:53:15;;;;;;;4.03;3.63;;;25.80;96.90;;;;;;4980098;28;20511;-82
2022/07/31 11:55:46;;;;;;;4.70;3.87;;;25.80;96.70;;;;;;4998311;28;20468;-81
2022/07/31 11:58:15;;;;;;;7.77;4.40;;;25.80;96.50;;;;;;4980667;28;20444;-80
2022/07/31 12:00:56;;;;;;;5.13;4.67;;;25.80;96.30;;;;;;4997536;28;20437;-81
2022/07/31 12:03:28;;;;;;;4.97;4.17;;;25.80;96.10;;;;;;4998371;28;20457;-82
2022/07/31 12:05:57;;;;;;;6.63;5.87;;;25.80;96.10;;;;;;4980464;28;20449;-81
2022/07/31 12:08:27;;;;;;;7.07;6.43;;;25.70;96.00;;;;;;4980426;28;20452;-80
2022/07/31 12:10:56;;;;;;;7.30;6.70;;;25.70;95.90;;;;;;4976732;28;20512;-80
2022/07/31 12:13:25;;;;;;;9.20;8.50;;;25.60;95.90;;;;;;4964728;28;20847;-81
2022/07/31 12:15:56;;;;;;;6.63;6.13;;;25.50;95.80;;;;;;4960492;28;20473;-81
2022/07/31 12:18:27;;;;;;;7.73;6.90;;;25.50;95.90;;;;;;4980671;28;20437;-81
2022/07/31 12:20:57;;;;;;;7.80;7.20;;;25.50;96.00;;;;;;4980582;28;20513;-81
2022/07/31 12:23:27;;;;;;;8.53;7.73;;;25.40;95.90;;;;;;4978203;28;20457;-80
2022/07/31 12:26:12;;;;;;;8.90;8.13;;;25.40;96.00;;;;;;4985568;28;20449;-82
2022/07/31 12:28:40;;;;;;;9.60;8.90;;;25.30;96.10;;;;;;4991133;28;20438;-80
2022/07/31 12:31:10;;;;;;;11.90;11.00;;;25.30;96.30;;;;;;4991787;28;20923;-81
2022/07/31 12:33:43;;;;;;;12.77;11.57;;;25.30;96.50;;;;;;4988796;28;20881;-80
2022/07/31 12:36:16;;;;;;;12.40;11.40;;;25.30;96.80;;;;;;4989670;28;20472;-81
2022/07/31 12:38:45;;;;;;;13.27;12.20;;;25.20;96.90;;;;;;4978485;28;20480;-81
2022/07/31 12:41:16;;;;;;;13.70;12.50;;;25.10;97.10;;;;;;4998211;28;20499;-81
2022/07/31 12:43:44;;;;;;;12.57;11.57;;;25.00;97.40;;;;;;4972979;28;20838;-81
2022/07/31 12:46:22;;;;;;;14.27;13.07;;;24.90;97.60;;;;;;4981797;28;20806;-81
2022/07/31 12:48:50;;;;;;;15.30;14.00;;;24.90;98.00;;;;;;4977646;28;20477;-82
2022/07/31 12:51:19;;;;;;;14.53;13.07;;;24.90;98.20;;;;;;4995054;28;20445;-82
2022/07/31 12:54:08;;;;;;;14.17;12.87;;;24.80;98.40;;;;;;4981095;28;21025;-83
2022/07/31 12:56:38;;;;;;;12.00;10.90;;;24.70;98.60;;;;;;4982569;28;20518;-82
2022/07/31 12:59:07;;;;;;;10.90;10.00;;;24.70;98.70;;;;;;4980721;28;20460;-82
2022/07/31 13:01:37;;;;;;;10.03;9.23;;;24.60;98.70;;;;;;4997779;28;20471;-82
2022/07/31 13:04:06;;;;;;;10.50;9.70;;;24.50;98.80;;;;;;4999264;28;20874;-81
2022/07/31 13:06:47;;;;;;;10.00;9.00;;;24.50;98.90;;;;;;5000458;28;20432;-81
2022/07/31 13:09:16;;;;;;;10.87;9.87;;;24.40;99.00;;;;;;4983436;28;20544;-81
2022/07/31 13:11:44;;;;;;;10.23;9.43;;;24.30;99.00;;;;;;4982644;28;20444;-81
2022/07/31 13:14:16;;;;;;;10.27;9.23;;;24.30;99.00;;;;;;5001440;28;20556;-81
2022/07/31 13:16:47;;;;;;;9.53;8.63;;;24.30;99.40;;;;;;5000896;28;20487;-81
2022/07/31 13:19:15;;;;;;;10.50;9.10;;;24.30;99.30;;;;;;4982671;28;20500;-81
2022/07/31 13:21:44;;;;;;;10.33;9.43;;;24.20;99.30;;;;;;4983142;28;20449;-81
2022/07/31 13:24:17;;;;;;;10.90;8.27;;;24.20;99.50;;;;;;5001433;28;20496;-81
2022/07/31 13:26:46;;;;;;;11.43;9.90;;;24.20;99.60;;;;;;4983658;28;20445;-81